createdAt,value
2018-06-24T00:02:06.073Z,98537.70
2018-06-24T00:04:34.595Z,98540.75
2018-06-24T00:07:03.069Z,98512.33
2018-06-24T00:09:31.627Z,98508.27
2018-06-24T00:12:00.109Z,98457.53
2018-06-24T00:14:28.586Z,98459.56
2018-06-24T00:16:57.075Z,98462.61
2018-06-24T00:19:25.541Z,98494.06
2018-06-24T00:21:54.082Z,98479.86
2018-06-24T00:24:22.558Z,98471.73
2018-06-24T00:26:51.173Z,98480.88
2018-06-24T00:29:19.667Z,98461.59
2018-06-24T00:31:48.157Z,98521.47
2018-06-24T00:34:16.641Z,98465.66
2018-06-24T00:36:45.209Z,98495.08
2018-06-24T00:39:13.685Z,98494.06
2018-06-24T00:41:42.193Z,98478.84
2018-06-24T00:44:10.704Z,98512.33
2018-06-24T00:46:39.221Z,98484.94
2018-06-24T00:49:07.706Z,98501.17
2018-06-24T00:51:36.237Z,98512.33
2018-06-24T00:54:04.866Z,98527.55
2018-06-24T00:56:33.810Z,98534.66
2018-06-24T00:59:02.279Z,98529.59
2018-06-24T01:01:30.789Z,98513.34
2018-06-24T01:03:59.265Z,98461.59
2018-06-24T01:06:27.895Z,98492.04
2018-06-24T01:08:56.382Z,98493.05
2018-06-24T01:11:24.892Z,98525.53
2018-06-24T01:13:53.390Z,98487.98
2018-06-24T01:16:21.921Z,98484.94
2018-06-24T01:18:50.399Z,98483.92
2018-06-24T01:21:18.917Z,98519.44
2018-06-24T01:23:47.723Z,98498.13
2018-06-24T01:26:16.201Z,98489.00
2018-06-24T01:28:44.686Z,98527.55
2018-06-24T01:31:13.211Z,98533.65
2018-06-24T01:33:41.747Z,98544.81
2018-06-24T01:36:10.361Z,98525.53
2018-06-24T01:38:38.853Z,98533.65
2018-06-24T01:41:07.369Z,98533.65
2018-06-24T01:43:35.832Z,98563.08
2018-06-24T01:46:04.407Z,98544.81
2018-06-24T01:48:33.285Z,98552.93
2018-06-24T01:51:01.780Z,98566.13
2018-06-24T01:53:30.249Z,98549.88
2018-06-24T01:55:58.905Z,98530.61
2018-06-24T01:58:27.349Z,98529.59
2018-06-24T02:00:55.819Z,98523.50
2018-06-24T02:03:24.705Z,98550.90
2018-06-24T02:05:53.169Z,98514.36
2018-06-24T02:08:21.629Z,98563.08
2018-06-24T02:10:50.113Z,98548.88
2018-06-24T02:13:18.606Z,98512.33
2018-06-24T02:15:47.117Z,98554.95
2018-06-24T02:18:15.586Z,98538.72
2018-06-24T02:20:44.203Z,98483.92
2018-06-24T02:23:13.173Z,98563.08
2018-06-24T02:25:41.645Z,98527.55
2018-06-24T02:28:10.112Z,98527.55
2018-06-24T02:30:38.607Z,98503.20
2018-06-24T02:33:07.143Z,98496.09
2018-06-24T02:35:35.634Z,98536.69
2018-06-24T02:38:04.094Z,98546.84
2018-06-24T02:40:32.665Z,98548.88
2018-06-24T02:43:01.173Z,98552.93
2018-06-24T02:45:29.636Z,98536.69
2018-06-24T02:47:58.138Z,98574.24
2018-06-24T02:50:26.732Z,98540.75
2018-06-24T02:52:55.360Z,98565.11
2018-06-24T02:55:23.832Z,98581.34
2018-06-24T02:57:52.298Z,98550.90
2018-06-24T03:00:20.877Z,98576.27
2018-06-24T03:02:49.375Z,98545.83
2018-06-24T03:05:17.837Z,98568.16
2018-06-24T03:07:46.697Z,98573.23
2018-06-24T03:10:15.181Z,98574.24
2018-06-24T03:12:43.645Z,98577.28
2018-06-24T03:15:12.159Z,98547.86
2018-06-24T03:17:40.638Z,98570.18
2018-06-24T03:20:09.109Z,98563.08
2018-06-24T03:22:37.593Z,98533.65
2018-06-24T03:25:06.074Z,98577.28
2018-06-24T03:27:34.594Z,98563.08
2018-06-24T03:30:03.089Z,98582.36
2018-06-24T03:32:31.553Z,98585.41
2018-06-24T03:35:00.573Z,98602.66
2018-06-24T03:37:29.053Z,98605.70
2018-06-24T03:39:57.669Z,98589.47
2018-06-24T03:42:26.224Z,98616.87
2018-06-24T03:44:54.682Z,98611.79
2018-06-24T03:47:23.590Z,98609.77
2018-06-24T03:49:52.045Z,98605.70
2018-06-24T03:52:20.511Z,98600.63
2018-06-24T03:54:49.080Z,98611.79
2018-06-24T03:57:17.655Z,98617.88
2018-06-24T03:59:46.158Z,98607.73
2018-06-24T04:02:14.690Z,98597.58
2018-06-24T04:04:43.213Z,98581.34
2018-06-24T04:07:11.859Z,98554.95
2018-06-24T04:09:40.449Z,98561.05
2018-06-24T04:12:08.928Z,98548.88
2018-06-24T04:14:37.394Z,98523.50
2018-06-24T04:17:05.943Z,98544.81
2018-06-24T04:19:34.462Z,98549.88
2018-06-24T04:22:02.944Z,98506.25
2018-06-24T04:24:31.547Z,98469.71
2018-06-24T04:27:00.044Z,98487.98
2018-06-24T04:29:29.540Z,98460.58
2018-06-24T04:31:58.124Z,98455.50
2018-06-24T04:34:26.593Z,98442.31
2018-06-24T04:36:55.121Z,98491.02
2018-06-24T04:39:23.621Z,98501.17
2018-06-24T04:41:52.113Z,98428.10
2018-06-24T04:44:20.637Z,98416.94
2018-06-24T04:46:49.109Z,98404.77
2018-06-24T04:49:19.626Z,98410.85
2018-06-24T04:51:48.121Z,98398.67
2018-06-24T04:54:16.578Z,98342.86
2018-06-24T04:56:46.079Z,98462.61
2018-06-24T04:59:14.878Z,98381.42
2018-06-24T05:01:43.353Z,98355.03
2018-06-24T05:04:12.303Z,98249.50
2018-06-24T05:06:40.792Z,98323.58
2018-06-24T05:09:10.954Z,98335.75
2018-06-24T05:11:39.510Z,98357.06
2018-06-24T05:14:07.996Z,98310.38
2018-06-24T05:16:36.608Z,98338.80
2018-06-24T05:19:05.173Z,98335.75
2018-06-24T05:21:33.811Z,98281.97
2018-06-24T05:24:02.479Z,98313.42
2018-06-24T05:26:30.941Z,98343.88
2018-06-24T05:28:59.433Z,98274.86
2018-06-24T05:31:27.925Z,98368.23
2018-06-24T05:33:56.475Z,98241.37
2018-06-24T05:36:25.253Z,98238.34
2018-06-24T05:38:53.739Z,98205.86
2018-06-24T05:41:22.510Z,98259.64
2018-06-24T05:43:51.080Z,98089.16
2018-06-24T05:46:19.778Z,98050.60
2018-06-24T05:48:48.276Z,98155.13
2018-06-24T05:51:16.787Z,98140.92
2018-06-24T05:53:45.266Z,98166.28
2018-06-24T05:56:13.741Z,98201.80
2018-06-24T05:58:42.197Z,98261.67
2018-06-24T06:01:10.827Z,98353.00
2018-06-24T06:03:39.334Z,98327.64
2018-06-24T06:06:07.829Z,98298.20
2018-06-24T06:08:36.362Z,98297.19
2018-06-24T06:11:04.894Z,98222.09
2018-06-24T06:13:33.536Z,98246.45
2018-06-24T06:16:02.056Z,98321.55
2018-06-24T06:18:30.563Z,98211.95
2018-06-24T06:20:59.093Z,98216.01
2018-06-24T06:23:27.697Z,98233.26
2018-06-24T06:25:56.205Z,98192.67
2018-06-24T06:28:24.719Z,98160.20
2018-06-24T06:30:53.630Z,98125.70
2018-06-24T06:33:22.103Z,98147.00
2018-06-24T06:35:50.598Z,98220.06
2018-06-24T06:38:19.226Z,98196.73
2018-06-24T06:40:47.721Z,98136.86
2018-06-24T06:43:16.193Z,98188.61
2018-06-24T06:45:44.869Z,98122.66
2018-06-24T06:48:13.233Z,98128.73
2018-06-24T06:50:41.729Z,98180.49
2018-06-24T06:53:10.193Z,98117.58
2018-06-24T06:55:39.098Z,98093.22
2018-06-24T06:58:07.590Z,98113.52
2018-06-24T07:00:36.125Z,98081.05
2018-06-24T07:03:05.316Z,98063.80
2018-06-24T07:05:33.778Z,98113.52
2018-06-24T07:08:03.620Z,98085.11
2018-06-24T07:10:32.230Z,98066.84
2018-06-24T07:13:02.407Z,98087.14
2018-06-24T07:15:30.849Z,98088.15
2018-06-24T07:17:59.557Z,98093.22
2018-06-24T07:20:28.069Z,98124.68
2018-06-24T07:22:56.557Z,98045.53
2018-06-24T07:25:25.066Z,98079.02
2018-06-24T07:27:53.543Z,98124.68
2018-06-24T07:30:22.017Z,98137.88
2018-06-24T07:32:50.482Z,98135.84
2018-06-24T07:35:18.993Z,98207.89
2018-06-24T07:37:47.699Z,98129.75
2018-06-24T07:40:16.202Z,98205.86
2018-06-24T07:42:44.677Z,98178.47
2018-06-24T07:45:13.133Z,98145.98
2018-06-24T07:47:41.641Z,98273.85
2018-06-24T07:50:10.148Z,98219.05
2018-06-24T07:52:39.021Z,98263.70
2018-06-24T07:55:07.497Z,98210.94
2018-06-24T07:57:36.020Z,98271.82
2018-06-24T08:00:05.006Z,98253.55
2018-06-24T08:02:33.492Z,98252.55
2018-06-24T08:05:01.965Z,98257.61
2018-06-24T08:07:30.538Z,98170.34
2018-06-24T08:09:58.991Z,98267.77
2018-06-24T08:12:27.457Z,98161.21
2018-06-24T08:14:56.027Z,98236.30
2018-06-24T08:17:24.551Z,98232.24
2018-06-24T08:19:53.031Z,98147.00
2018-06-24T08:22:21.513Z,98164.26
2018-06-24T08:24:49.957Z,98151.06
2018-06-24T08:27:18.448Z,98211.95
2018-06-24T08:29:46.955Z,98169.33
2018-06-24T08:32:15.574Z,98171.36
2018-06-24T08:34:44.049Z,98177.45
2018-06-24T08:37:13.049Z,98182.52
2018-06-24T08:39:41.529Z,98162.23
2018-06-24T08:42:10.110Z,98243.41
2018-06-24T08:44:38.606Z,98191.66
2018-06-24T08:47:07.155Z,98183.53
2018-06-24T08:49:35.649Z,98150.05
2018-06-24T08:52:04.173Z,98198.76
2018-06-24T08:54:32.675Z,98229.20
2018-06-24T08:57:01.157Z,98189.63
2018-06-24T08:59:29.677Z,98192.67
2018-06-24T09:01:58.202Z,98131.78
2018-06-24T09:04:26.665Z,98054.66
2018-06-24T09:06:55.185Z,98102.36
2018-06-24T09:09:23.660Z,98046.55
2018-06-24T09:11:52.144Z,98127.73
2018-06-24T09:14:20.641Z,98107.43
2018-06-24T09:16:49.137Z,98109.46
2018-06-24T09:19:17.722Z,98019.15
2018-06-24T09:21:46.831Z,98079.02
2018-06-24T09:24:15.306Z,98120.63
2018-06-24T09:26:43.857Z,98066.84
2018-06-24T09:29:12.327Z,98047.56
2018-06-24T09:31:40.835Z,97957.25
2018-06-24T09:34:09.429Z,98032.34
2018-06-24T09:36:37.919Z,98064.81
2018-06-24T09:39:09.486Z,98106.41
2018-06-24T09:41:37.953Z,98168.31
2018-06-24T09:44:06.729Z,98162.23
2018-06-24T09:46:35.938Z,98212.97
2018-06-24T09:49:04.446Z,98219.05
2018-06-24T09:51:33.257Z,98137.88
2018-06-24T09:54:01.790Z,98097.28
2018-06-24T09:56:30.350Z,98127.73
2018-06-24T09:58:58.849Z,98115.55
2018-06-24T10:01:27.377Z,98159.18
2018-06-24T10:03:56.130Z,98272.84
2018-06-24T10:06:24.745Z,98194.70
2018-06-24T10:08:53.264Z,98121.63
2018-06-24T10:11:21.826Z,98098.30
2018-06-24T10:13:50.425Z,98128.73
2018-06-24T10:16:18.897Z,98235.29
2018-06-24T10:18:47.374Z,98144.98
2018-06-24T10:21:15.881Z,98113.52
2018-06-24T10:23:44.358Z,98119.61
2018-06-24T10:26:12.801Z,98144.98
2018-06-24T10:28:41.302Z,98275.88
2018-06-24T10:31:09.799Z,98209.92
2018-06-24T10:33:38.257Z,98162.23
2018-06-24T10:36:06.870Z,98107.43
2018-06-24T10:38:35.356Z,98025.23
2018-06-24T10:41:03.892Z,97962.33
2018-06-24T10:43:32.363Z,97881.15
2018-06-24T10:46:00.846Z,97972.47
2018-06-24T10:48:29.321Z,97943.05
2018-06-24T10:50:57.785Z,97910.58
2018-06-24T10:53:26.270Z,97915.65
2018-06-24T10:55:54.811Z,98004.94
2018-06-24T10:58:23.308Z,98065.83
2018-06-24T11:00:51.786Z,97981.61
2018-06-24T11:03:20.300Z,98048.58
2018-06-24T11:05:48.814Z,97983.64
2018-06-24T11:08:17.327Z,97919.70
2018-06-24T11:10:45.793Z,98024.22
2018-06-24T11:13:14.645Z,97891.30
2018-06-24T11:15:43.109Z,97848.68
2018-06-24T11:18:11.609Z,97786.79
2018-06-24T11:20:40.117Z,97786.79
2018-06-24T11:23:08.668Z,97702.58
2018-06-24T11:25:37.166Z,97912.61
2018-06-24T11:28:06.592Z,97902.46
2018-06-24T11:30:35.093Z,98024.22
2018-06-24T11:33:03.577Z,97924.78
2018-06-24T11:35:32.099Z,97838.53
2018-06-24T11:38:00.573Z,97966.38
2018-06-24T11:40:29.621Z,98005.95
2018-06-24T11:42:58.088Z,98009.00
2018-06-24T11:45:26.553Z,97944.06
2018-06-24T11:47:55.172Z,97919.70
2018-06-24T11:50:23.647Z,97916.66
2018-06-24T11:52:52.121Z,97896.38
2018-06-24T11:55:20.641Z,97941.02
2018-06-24T11:57:49.172Z,97985.66
2018-06-24T12:00:17.665Z,97980.59
2018-06-24T12:02:46.153Z,97930.88
2018-06-24T12:05:14.669Z,97902.46
2018-06-24T12:07:43.168Z,97845.64
2018-06-24T12:10:11.706Z,97812.16
2018-06-24T12:12:40.197Z,97825.34
2018-06-24T12:15:08.710Z,97901.45
2018-06-24T12:17:37.210Z,97887.23
2018-06-24T12:20:05.974Z,97881.15
2018-06-24T12:22:34.437Z,97756.35
2018-06-24T12:25:03.040Z,97717.80
2018-06-24T12:27:31.953Z,97816.21
2018-06-24T12:30:00.405Z,97748.23
2018-06-24T12:32:28.961Z,97829.41
2018-06-24T12:34:57.443Z,97835.48
2018-06-24T12:37:25.944Z,97912.61
2018-06-24T12:39:54.438Z,97850.71
2018-06-24T12:42:22.921Z,97898.41
2018-06-24T12:44:51.446Z,97811.14
2018-06-24T12:47:19.894Z,97830.42
2018-06-24T12:49:48.556Z,97849.70
2018-06-24T12:52:17.070Z,97934.93
2018-06-24T12:54:45.622Z,97849.70
2018-06-24T12:57:14.190Z,97878.11
2018-06-24T12:59:42.802Z,97872.02
2018-06-24T13:02:11.179Z,97891.30
2018-06-24T13:04:40.353Z,97791.86
2018-06-24T13:07:09.118Z,97910.58
2018-06-24T13:09:37.575Z,97917.68
2018-06-24T13:12:06.151Z,97876.08
2018-06-24T13:14:34.650Z,97902.46
2018-06-24T13:17:03.210Z,97949.13
2018-06-24T13:19:31.762Z,97914.64
2018-06-24T13:22:00.537Z,97898.41
2018-06-24T13:24:29.030Z,98017.12
2018-06-24T13:26:57.550Z,98047.56
2018-06-24T13:29:26.027Z,98039.45
2018-06-24T13:31:54.603Z,97969.43
2018-06-24T13:34:23.091Z,98124.68
2018-06-24T13:36:51.586Z,98064.81
2018-06-24T13:39:20.053Z,98069.89
2018-06-24T13:41:48.541Z,98078.00
2018-06-24T13:44:17.451Z,98091.19
2018-06-24T13:46:45.914Z,97979.58
2018-06-24T13:49:14.425Z,98018.13
2018-06-24T13:51:42.988Z,97933.91
2018-06-24T13:54:11.720Z,97933.91
2018-06-24T13:56:40.229Z,98106.41
2018-06-24T13:59:08.691Z,98036.40
2018-06-24T14:01:37.293Z,98042.48
2018-06-24T14:04:06.411Z,98059.73
2018-06-24T14:06:34.895Z,98057.70
2018-06-24T14:09:03.549Z,98116.56
2018-06-24T14:11:32.038Z,98119.61
2018-06-24T14:14:00.608Z,98066.84
2018-06-24T14:16:29.085Z,98094.23
2018-06-24T14:18:57.588Z,98091.19
2018-06-24T14:21:26.054Z,98039.45
2018-06-24T14:23:54.901Z,98073.95
2018-06-24T14:26:23.438Z,97977.55
2018-06-24T14:28:51.932Z,97999.88
2018-06-24T14:31:20.398Z,97909.56
2018-06-24T14:33:48.862Z,98026.25
2018-06-24T14:36:17.413Z,97984.65
2018-06-24T14:38:45.864Z,97965.37
2018-06-24T14:41:14.722Z,97958.27
2018-06-24T14:43:43.258Z,97975.52
2018-06-24T14:46:11.747Z,97997.84
2018-06-24T14:48:40.232Z,98018.13
2018-06-24T14:51:08.693Z,97978.56
2018-06-24T14:53:37.169Z,98035.38
2018-06-24T14:56:05.725Z,98124.68
2018-06-24T14:58:34.201Z,98115.55
2018-06-24T15:01:02.824Z,98082.06
2018-06-24T15:03:31.433Z,98126.71
2018-06-24T15:05:59.950Z,98150.05
2018-06-24T15:08:28.421Z,98150.05
2018-06-24T15:10:57.122Z,98107.43
2018-06-24T15:13:25.742Z,98099.31
2018-06-24T15:15:54.227Z,98086.13
2018-06-24T15:18:23.017Z,98065.83
2018-06-24T15:20:51.533Z,98101.34
2018-06-24T15:23:20.052Z,98079.02
2018-06-24T15:25:48.581Z,98088.15
2018-06-24T15:28:17.070Z,97956.23
2018-06-24T15:30:46.412Z,97970.45
2018-06-24T15:33:15.345Z,97952.17
2018-06-24T15:35:43.809Z,97950.15
2018-06-24T15:38:12.313Z,97924.78
2018-06-24T15:40:40.998Z,97785.77
2018-06-24T15:43:09.505Z,97701.56
2018-06-24T15:45:38.033Z,97756.35
2018-06-24T15:48:06.524Z,97832.45
2018-06-24T15:50:35.170Z,97831.44
2018-06-24T15:53:03.664Z,97814.19
2018-06-24T15:55:32.329Z,97864.91
2018-06-24T15:58:00.889Z,97882.17
2018-06-24T16:00:29.379Z,97881.15
2018-06-24T16:02:57.861Z,97913.63
2018-06-24T16:05:26.872Z,97929.86
2018-06-24T16:07:56.433Z,97857.81
2018-06-24T16:10:24.903Z,97877.09
2018-06-24T16:12:53.465Z,97740.11
2018-06-24T16:15:21.932Z,97657.93
2018-06-24T16:17:50.405Z,97578.80
2018-06-24T16:20:19.035Z,97665.03
2018-06-24T16:22:47.690Z,97774.61
2018-06-24T16:25:16.193Z,97788.81
2018-06-24T16:27:44.770Z,97884.20
2018-06-24T16:30:13.295Z,97919.70
2018-06-24T16:32:41.890Z,97990.73
2018-06-24T16:35:10.422Z,98028.28
2018-06-24T16:37:38.898Z,97979.58
2018-06-24T16:40:07.490Z,98040.45
2018-06-24T16:42:35.991Z,98072.93
2018-06-24T16:45:04.637Z,98065.83
2018-06-24T16:47:33.128Z,98034.37
2018-06-24T16:50:01.697Z,98057.70
2018-06-24T16:52:30.114Z,98011.03
2018-06-24T16:54:58.690Z,98028.28
2018-06-24T16:57:27.174Z,98009.00
2018-06-24T16:59:56.117Z,98018.13
2018-06-24T17:02:24.595Z,97993.78
2018-06-24T17:04:53.072Z,97981.61
2018-06-24T17:07:21.591Z,98053.66
2018-06-24T17:09:50.078Z,98012.05
2018-06-24T17:12:18.567Z,98052.64
2018-06-24T17:14:47.042Z,97986.68
2018-06-24T17:17:15.509Z,97984.65
2018-06-24T17:19:44.084Z,97975.52
2018-06-24T17:22:12.530Z,97957.25
2018-06-24T17:24:41.060Z,98002.91
2018-06-24T17:27:09.598Z,98012.05
2018-06-24T17:29:38.235Z,98025.23
2018-06-24T17:32:06.820Z,98061.77
2018-06-24T17:34:35.774Z,98043.50
2018-06-24T17:37:04.283Z,98066.84
2018-06-24T17:39:33.186Z,98066.84
2018-06-24T17:42:01.277Z,98081.05
2018-06-24T17:44:29.789Z,98094.23
2018-06-24T17:46:58.345Z,98162.23
2018-06-24T17:49:26.972Z,98193.69
2018-06-24T17:51:55.529Z,98195.72
2018-06-24T17:54:24.078Z,98197.74
2018-06-24T17:56:52.714Z,98240.36
2018-06-24T17:59:21.262Z,98244.42
2018-06-24T18:01:49.765Z,98243.41
2018-06-24T18:04:18.766Z,98270.80
2018-06-24T18:06:47.244Z,98248.48
2018-06-24T18:09:15.759Z,98278.92
2018-06-24T18:11:44.449Z,98254.57
2018-06-24T18:14:12.930Z,98269.80
2018-06-24T18:16:41.426Z,98263.70
2018-06-24T18:19:09.904Z,98242.39
2018-06-24T18:21:38.493Z,98256.59
2018-06-24T18:24:06.968Z,98224.13
2018-06-24T18:26:35.530Z,98236.30
2018-06-24T18:29:04.144Z,98206.88
2018-06-24T18:31:32.650Z,98221.09
2018-06-24T18:34:01.383Z,98186.58
2018-06-24T18:36:29.968Z,98216.01
2018-06-24T18:38:58.471Z,98228.19
2018-06-24T18:41:26.968Z,98228.19
2018-06-24T18:43:55.476Z,98242.39
2018-06-24T18:46:24.197Z,98248.48
2018-06-24T18:48:52.674Z,98245.44
2018-06-24T18:51:21.263Z,98231.23
2018-06-24T18:53:49.782Z,98258.63
2018-06-24T18:56:18.393Z,98257.61
2018-06-24T18:58:46.910Z,98292.12
2018-06-24T19:01:15.420Z,98231.23
2018-06-24T19:03:44.053Z,98266.75
2018-06-24T19:06:12.569Z,98293.13
2018-06-24T19:08:41.205Z,98267.77
2018-06-24T19:11:10.054Z,98260.66
2018-06-24T19:13:38.673Z,98309.37
2018-06-24T19:16:07.253Z,98272.84
2018-06-24T19:18:36.303Z,98278.92
2018-06-24T19:21:04.919Z,98306.33
2018-06-24T19:23:33.579Z,98293.13
2018-06-24T19:26:02.654Z,98297.19
2018-06-24T19:28:31.226Z,98328.65
2018-06-24T19:30:59.799Z,98329.66
2018-06-24T19:33:28.323Z,98301.25
2018-06-24T19:35:56.806Z,98286.03
2018-06-24T19:38:25.319Z,98293.13
2018-06-24T19:40:53.802Z,98301.25
2018-06-24T19:43:22.337Z,98315.45
2018-06-24T19:45:50.881Z,98308.36
2018-06-24T19:48:19.403Z,98336.77
2018-06-24T19:50:47.924Z,98349.96
2018-06-24T19:53:16.403Z,98333.73
2018-06-24T19:55:44.885Z,98312.41
2018-06-24T19:58:13.454Z,98335.75
2018-06-24T20:00:41.950Z,98333.73
2018-06-24T20:03:10.988Z,98347.94
2018-06-24T20:05:39.577Z,98341.84
2018-06-24T20:08:08.436Z,98322.56
2018-06-24T20:10:36.903Z,98325.61
2018-06-24T20:13:05.457Z,98370.26
2018-06-24T20:15:33.961Z,98361.13
2018-06-24T20:18:02.417Z,98318.50
2018-06-24T20:20:30.893Z,98392.59
2018-06-24T20:22:59.375Z,98376.34
2018-06-24T20:25:27.905Z,98377.36
2018-06-24T20:27:57.429Z,98355.03
2018-06-24T20:30:25.932Z,98357.06
2018-06-24T20:32:54.462Z,98370.26
2018-06-24T20:35:22.946Z,98382.44
2018-06-24T20:37:51.432Z,98363.16
2018-06-24T20:40:19.901Z,98378.37
2018-06-24T20:42:48.817Z,98347.94
2018-06-24T20:45:17.294Z,98406.80
2018-06-24T20:47:45.768Z,98403.75
2018-06-24T20:50:14.434Z,98414.91
2018-06-24T20:52:42.969Z,98404.77
2018-06-24T20:55:11.479Z,98398.67
2018-06-24T20:57:40.351Z,98365.19
2018-06-24T21:00:09.098Z,98386.49
2018-06-24T21:02:37.562Z,98374.31
2018-06-24T21:05:06.546Z,98366.20
2018-06-24T21:07:35.021Z,98406.80
2018-06-24T21:10:03.601Z,98400.70
2018-06-24T21:12:32.174Z,98385.48
2018-06-24T21:15:00.966Z,98407.80
2018-06-24T21:17:29.454Z,98391.57
2018-06-24T21:19:57.921Z,98377.36
2018-06-24T21:22:26.730Z,98397.66
2018-06-24T21:24:55.223Z,98384.47
2018-06-24T21:27:23.729Z,98406.80
2018-06-24T21:29:52.219Z,98413.89
2018-06-24T21:32:20.694Z,98409.84
2018-06-24T21:34:49.205Z,98405.78
2018-06-24T21:37:17.720Z,98452.45
2018-06-24T21:39:46.206Z,98411.86
2018-06-24T21:42:14.717Z,98416.94
2018-06-24T21:44:43.184Z,98410.85
2018-06-24T21:47:12.188Z,98405.78
2018-06-24T21:49:40.674Z,98413.89
2018-06-24T21:52:09.154Z,98439.27
2018-06-24T21:54:37.692Z,98446.37
2018-06-24T21:57:06.184Z,98432.16
2018-06-24T21:59:34.820Z,98445.35
2018-06-24T22:02:03.341Z,98433.18
2018-06-24T22:04:31.857Z,98454.48
2018-06-24T22:07:00.342Z,98467.68
2018-06-24T22:09:28.814Z,98424.05
2018-06-24T22:11:57.317Z,98455.50
2018-06-24T22:14:25.810Z,98440.28
2018-06-24T22:16:54.440Z,98472.75
2018-06-24T22:19:22.929Z,98470.72
2018-06-24T22:21:51.475Z,98486.96
2018-06-24T22:24:19.921Z,98452.45
2018-06-24T22:26:48.393Z,98471.73
2018-06-24T22:29:17.014Z,98489.00
2018-06-24T22:31:45.650Z,98481.89
2018-06-24T22:34:14.149Z,98454.48
2018-06-24T22:36:42.617Z,98483.92
2018-06-24T22:39:12.306Z,98458.55
2018-06-24T22:41:41.442Z,98445.35
2018-06-24T22:44:09.910Z,98474.78
2018-06-24T22:46:38.382Z,98464.64
2018-06-24T22:49:07.294Z,98496.09
2018-06-24T22:51:36.206Z,98469.71
2018-06-24T22:54:05.242Z,98472.75
2018-06-24T22:56:33.766Z,98492.04
2018-06-24T22:59:13.506Z,98498.13
2018-06-24T23:01:41.993Z,98472.75
2018-06-24T23:04:10.494Z,98493.05
2018-06-24T23:06:38.989Z,98484.94
2018-06-24T23:09:08.833Z,98478.84
2018-06-24T23:11:37.573Z,98478.84
2018-06-24T23:14:06.168Z,98489.00
2018-06-24T23:16:34.731Z,98475.80
2018-06-24T23:19:03.227Z,98466.67
2018-06-24T23:21:31.811Z,98459.56
2018-06-24T23:24:00.337Z,98452.45
2018-06-24T23:26:28.834Z,98472.75
2018-06-24T23:28:58.098Z,98491.02
2018-06-24T23:31:26.777Z,98510.30
2018-06-24T23:33:55.518Z,98456.52
2018-06-24T23:36:24.021Z,98490.01
2018-06-24T23:38:52.505Z,98491.02
2018-06-24T23:41:20.986Z,98460.58
2018-06-24T23:43:49.461Z,98466.67
2018-06-24T23:46:18.067Z,98477.83
2018-06-24T23:48:46.576Z,98497.11
2018-06-24T23:51:15.113Z,98499.14
2018-06-24T23:53:43.961Z,98485.95
2018-06-24T23:56:12.486Z,98474.78
2018-06-24T23:58:40.963Z,98497.11
